createdAt,value
2022-08-22T00:02:01.819Z,2.42
2022-08-22T00:07:42.531Z,3.10
2022-08-22T00:12:44.941Z,1.67
2022-08-22T00:17:55.412Z,3.30
2022-08-22T00:23:17.664Z,2.90
2022-08-22T00:28:28.286Z,1.70
2022-08-22T00:33:51.889Z,3.40
2022-08-22T00:39:07.318Z,1.98
2022-08-22T00:44:15.339Z,2.80
2022-08-22T00:49:23.167Z,1.83
2022-08-22T00:55:12.407Z,2.47
2022-08-22T01:00:21.566Z,2.95
2022-08-22T01:05:48.578Z,2.45
2022-08-22T01:11:16.992Z,1.02
2022-08-22T01:16:41.952Z,1.33
2022-08-22T01:22:10.037Z,1.83
2022-08-22T01:27:34.590Z,1.80
2022-08-22T01:32:59.816Z,0.82
2022-08-22T01:38:10.917Z,2.08
2022-08-22T01:43:59.701Z,0.95
2022-08-22T01:48:58.190Z,2.10
2022-08-22T01:54:14.522Z,1.15
2022-08-22T01:59:33.758Z,1.02
2022-08-22T02:04:55.389Z,1.13
2022-08-22T02:10:06.339Z,2.03
2022-08-22T02:15:43.945Z,2.88
2022-08-22T02:20:49.074Z,3.33
2022-08-22T02:25:55.599Z,1.40
2022-08-22T02:31:29.474Z,4.00
2022-08-22T02:36:40.215Z,2.42
2022-08-22T02:42:11.119Z,1.55
2022-08-22T02:47:25.632Z,1.45
2022-08-22T02:52:40.157Z,6.82
2022-08-22T02:57:52.817Z,5.30
2022-08-22T03:03:22.669Z,7.63
2022-08-22T03:08:34.110Z,10.48
2022-08-22T03:13:40.216Z,6.45
2022-08-22T03:18:49.093Z,11.80
2022-08-22T03:24:18.423Z,8.48
2022-08-22T03:29:33.422Z,5.55
2022-08-22T03:34:36.319Z,5.32
2022-08-22T03:39:57.068Z,4.93
2022-08-22T03:45:07.866Z,5.47
2022-08-22T03:50:34.276Z,5.95
2022-08-22T03:56:17.837Z,3.97
2022-08-22T04:01:49.485Z,5.18
2022-08-22T04:07:35.425Z,6.32
2022-08-22T04:13:12.733Z,4.95
2022-08-22T04:18:29.516Z,5.10
2022-08-22T04:23:44.141Z,6.72
2022-08-22T04:28:57.238Z,9.52
2022-08-22T04:34:15.495Z,10.32
2022-08-22T04:39:40.287Z,8.65
2022-08-22T04:44:53.828Z,9.63
2022-08-22T04:50:03.739Z,7.90
2022-08-22T04:55:27.359Z,8.50
2022-08-22T05:00:51.593Z,10.60
2022-08-22T05:05:55.809Z,8.35
2022-08-22T05:10:59.609Z,10.52
2022-08-22T05:16:06.141Z,12.90
2022-08-22T05:21:11.130Z,9.07
2022-08-22T05:26:17.729Z,12.45
2022-08-22T05:31:34.456Z,14.40
2022-08-22T05:36:45.259Z,16.00
2022-08-22T05:41:49.430Z,10.32
2022-08-22T05:47:23.641Z,11.23
2022-08-22T05:53:03.388Z,11.70
2022-08-22T05:58:30.976Z,15.75
2022-08-22T06:04:08.061Z,9.02
2022-08-22T06:09:24.025Z,11.70
2022-08-22T06:14:46.431Z,15.48
2022-08-22T06:19:52.327Z,15.57
2022-08-22T06:24:57.830Z,13.20
2022-08-22T06:30:03.123Z,12.05
2022-08-22T06:35:15.593Z,17.90
2022-08-22T06:40:18.793Z,28.25
2022-08-22T06:45:31.830Z,27.63
2022-08-22T06:50:35.958Z,30.38
2022-08-22T06:55:42.240Z,20.55
2022-08-22T07:00:58.813Z,12.10
2022-08-22T07:06:15.990Z,27.90
2022-08-22T07:11:31.237Z,19.73
2022-08-22T07:16:42.851Z,18.08
2022-08-22T07:21:47.872Z,19.90
2022-08-22T07:26:58.797Z,13.38
2022-08-22T07:32:04.647Z,20.52
2022-08-22T07:37:16.702Z,15.75
2022-08-22T07:42:28.572Z,19.75
2022-08-22T07:47:52.762Z,18.85
2022-08-22T07:53:04.279Z,17.42
2022-08-22T07:58:08.190Z,38.22
2022-08-22T08:03:10.531Z,23.77
2022-08-22T08:08:34.305Z,18.90
2022-08-22T08:13:41.734Z,22.08
2022-08-22T08:18:48.463Z,21.58
2022-08-22T08:23:51.085Z,23.20
2022-08-22T08:28:57.234Z,35.13
2022-08-22T08:34:18.389Z,17.83
2022-08-22T08:44:22.750Z,29.75
2022-08-22T08:49:35.712Z,29.70
2022-08-22T08:54:51.966Z,27.58
2022-08-22T09:00:06.908Z,46.08
2022-08-22T09:05:33.955Z,48.13
2022-08-22T09:10:54.102Z,30.65
2022-08-22T09:16:15.112Z,35.05
2022-08-22T09:21:30.595Z,28.55
2022-08-22T09:26:50.918Z,26.10
2022-08-22T09:32:21.144Z,26.48
2022-08-22T09:37:38.113Z,16.77
2022-08-22T09:42:53.178Z,31.88
2022-08-22T09:48:29.809Z,18.83
2022-08-22T09:53:37.836Z,53.72
2022-08-22T09:59:21.746Z,37.08
2022-08-22T10:04:51.437Z,26.38
2022-08-22T10:10:06.310Z,42.03
2022-08-22T10:15:08.886Z,34.65
2022-08-22T10:20:28.479Z,28.92
2022-08-22T10:25:34.556Z,27.15
2022-08-22T10:30:42.969Z,18.55
2022-08-22T10:35:51.093Z,26.88
2022-08-22T10:41:36.281Z,24.63
2022-08-22T10:46:42.387Z,25.52
2022-08-22T10:51:50.018Z,33.92
2022-08-22T10:57:13.426Z,25.10
2022-08-22T11:02:35.212Z,24.88
2022-08-22T11:08:04.438Z,22.05
2022-08-22T11:13:43.724Z,38.95
2022-08-22T11:24:56.765Z,38.45
2022-08-22T11:30:10.110Z,24.35
2022-08-22T11:35:27.073Z,29.15
2022-08-22T11:41:03.713Z,30.05
2022-08-22T11:46:29.577Z,26.05
2022-08-22T11:51:53.016Z,32.05
2022-08-22T11:57:07.062Z,16.40
2022-08-22T12:02:26.646Z,30.30
2022-08-22T12:07:38.001Z,29.00
2022-08-22T12:12:39.964Z,25.92
2022-08-22T12:18:09.016Z,23.88
2022-08-22T12:23:43.416Z,27.52
2022-08-22T12:28:57.508Z,24.65
2022-08-22T12:34:32.980Z,40.40
2022-08-22T12:39:54.264Z,19.67
2022-08-22T12:45:33.887Z,15.85
2022-08-22T12:50:43.112Z,34.20
2022-08-22T12:55:51.546Z,24.23
2022-08-22T13:01:00.829Z,32.13
2022-08-22T13:11:30.980Z,21.88
2022-08-22T13:16:49.018Z,23.33
2022-08-22T13:22:10.054Z,19.83
2022-08-22T13:27:35.108Z,27.25
2022-08-22T13:32:45.641Z,19.20
2022-08-22T13:37:52.489Z,15.65
2022-08-22T13:43:05.543Z,32.90
2022-08-22T13:48:17.346Z,26.23
2022-08-22T13:53:49.374Z,33.35
2022-08-22T13:59:07.816Z,22.10
2022-08-22T14:04:36.092Z,22.33
2022-08-22T14:09:54.674Z,19.83
2022-08-22T14:15:04.483Z,20.80
2022-08-22T14:20:32.218Z,21.40
2022-08-22T14:25:40.664Z,24.95
2022-08-22T14:31:13.325Z,26.75
2022-08-22T14:36:43.327Z,17.70
2022-08-22T14:41:58.551Z,19.20
2022-08-22T14:47:15.814Z,23.65
2022-08-22T14:52:44.675Z,19.98
2022-08-22T14:57:57.905Z,22.98
2022-08-22T15:03:14.978Z,17.95
2022-08-22T15:08:51.624Z,22.42
2022-08-22T15:14:03.397Z,19.10
2022-08-22T15:19:27.237Z,16.50
2022-08-22T15:24:30.388Z,18.85
2022-08-22T15:34:42.053Z,28.58
2022-08-22T15:40:02.855Z,14.02
2022-08-22T15:45:34.135Z,18.92
2022-08-22T15:50:56.919Z,19.75
2022-08-22T15:56:15.390Z,21.08
2022-08-22T16:01:24.314Z,28.25
2022-08-22T16:06:44.757Z,19.65
2022-08-22T16:11:55.735Z,21.02
2022-08-22T16:22:08.492Z,17.42
2022-08-22T16:27:22.733Z,19.23
2022-08-22T16:32:28.372Z,58.25
2022-08-22T16:37:50.810Z,30.15
2022-08-22T16:43:17.589Z,28.50
2022-08-22T16:48:25.361Z,24.85
2022-08-22T16:53:30.158Z,18.58
2022-08-22T16:59:13.894Z,22.40
2022-08-22T17:04:59.237Z,22.30
2022-08-22T17:10:26.896Z,23.15
2022-08-22T17:15:59.290Z,24.17
2022-08-22T17:21:29.006Z,40.75
2022-08-22T17:26:56.385Z,39.47
2022-08-22T17:32:07.517Z,29.60
2022-08-22T17:37:16.101Z,21.45
2022-08-22T17:42:37.705Z,23.52
2022-08-22T17:47:49.667Z,21.60
2022-08-22T17:53:11.384Z,23.27
2022-08-22T17:58:37.935Z,32.53
2022-08-22T18:03:52.848Z,27.05
2022-08-22T18:14:35.821Z,28.63
2022-08-22T18:19:55.338Z,66.30
2022-08-22T18:25:03.655Z,43.85
2022-08-22T18:30:19.918Z,28.48
2022-08-22T18:35:29.021Z,27.73
2022-08-22T18:40:37.230Z,21.48
2022-08-22T18:45:51.566Z,14.55
2022-08-22T18:51:35.887Z,20.13
2022-08-22T18:56:54.738Z,12.38
2022-08-22T19:02:54.269Z,20.60
2022-08-22T19:08:37.017Z,26.10
2022-08-22T19:13:47.767Z,14.55
2022-08-22T19:18:58.188Z,14.07
2022-08-22T19:24:01.231Z,44.47
2022-08-22T19:29:12.298Z,20.50
2022-08-22T19:34:39.862Z,43.63
2022-08-22T19:39:41.848Z,39.95
2022-08-22T19:44:54.805Z,32.63
2022-08-22T19:50:10.452Z,23.52
2022-08-22T19:55:18.344Z,38.13
2022-08-22T20:00:53.613Z,34.10
2022-08-22T20:06:05.950Z,40.38
2022-08-22T20:11:39.066Z,25.90
2022-08-22T20:17:01.890Z,69.22
2022-08-22T20:22:08.134Z,45.13
2022-08-22T20:27:15.591Z,38.38
2022-08-22T20:32:23.187Z,49.50
2022-08-22T20:37:45.514Z,57.15
2022-08-22T20:42:53.978Z,61.90
2022-08-22T20:47:56.385Z,29.40
2022-08-22T20:53:09.635Z,29.02
2022-08-22T20:58:27.204Z,41.08
2022-08-22T21:03:52.167Z,45.00
2022-08-22T21:09:30.025Z,29.42
2022-08-22T21:14:34.876Z,26.58
2022-08-22T21:19:36.919Z,83.32
2022-08-22T21:24:38.979Z,46.55
2022-08-22T21:29:46.754Z,28.55
2022-08-22T21:34:49.807Z,27.00
2022-08-22T21:40:04.558Z,31.55
2022-08-22T21:45:11.317Z,30.17
2022-08-22T21:50:13.209Z,36.00
2022-08-22T21:55:30.425Z,43.10
2022-08-22T22:01:24.838Z,58.63
2022-08-22T22:06:27.658Z,38.13
2022-08-22T22:11:29.721Z,23.50
2022-08-22T22:16:32.733Z,32.38
2022-08-22T22:21:34.716Z,45.30
2022-08-22T22:26:36.716Z,43.08
2022-08-22T22:31:38.763Z,21.85
2022-08-22T22:36:42.240Z,34.70
2022-08-22T22:41:44.246Z,29.83
2022-08-22T22:46:46.218Z,19.98
2022-08-22T22:51:49.135Z,20.58
2022-08-22T22:56:51.195Z,33.00
2022-08-22T23:02:09.136Z,22.50
2022-08-22T23:07:13.111Z,18.20
2022-08-22T23:12:15.506Z,23.05
2022-08-22T23:17:18.295Z,15.98
2022-08-22T23:22:20.672Z,17.40
2022-08-22T23:27:22.797Z,19.10
2022-08-22T23:32:24.761Z,8.43
2022-08-22T23:37:26.754Z,7.13
2022-08-22T23:42:29.599Z,5.05
2022-08-22T23:47:31.590Z,6.35
2022-08-22T23:52:34.310Z,6.75
2022-08-22T23:57:36.368Z,4.32
